sensor_id;sensor_type;location;lat;lon;timestamp;temperature;humidity
5576;DHT22;2810;50.134;8.626;2022-07-23T00:02:14;22.10;99.90
5576;DHT22;2810;50.134;8.626;2022-07-23T00:04:40;22.00;99.90
5576;DHT22;2810;50.134;8.626;2022-07-23T00:07:05;22.00;99.90
5576;DHT22;2810;50.134;8.626;2022-07-23T00:09:31;22.00;99.90
5576;DHT22;2810;50.134;8.626;2022-07-23T00:11:57;22.20;99.90
5576;DHT22;2810;50.134;8.626;2022-07-23T00:14:22;22.00;99.90
5576;DHT22;2810;50.134;8.626;2022-07-23T00:16:48;21.90;99.90
5576;DHT22;2810;50.134;8.626;2022-07-23T00:19:13;21.80;99.90
5576;DHT22;2810;50.134;8.626;2022-07-23T00:21:38;21.70;99.90
5576;DHT22;2810;50.134;8.626;2022-07-23T00:24:04;21.70;99.90
5576;DHT22;2810;50.134;8.626;2022-07-23T00:26:29;21.70;99.90
5576;DHT22;2810;50.134;8.626;2022-07-23T00:28:55;21.70;99.90
5576;DHT22;2810;50.134;8.626;2022-07-23T00:31:20;21.60;99.90
5576;DHT22;2810;50.134;8.626;2022-07-23T00:33:46;21.90;99.90
5576;DHT22;2810;50.134;8.626;2022-07-23T00:36:11;21.50;99.90
5576;DHT22;2810;50.134;8.626;2022-07-23T00:38:37;21.50;99.90
5576;DHT22;2810;50.134;8.626;2022-07-23T00:41:02;21.60;99.90
5576;DHT22;2810;50.134;8.626;2022-07-23T00:43:28;21.60;99.90
5576;DHT22;2810;50.134;8.626;2022-07-23T00:45:53;21.60;99.90
5576;DHT22;2810;50.134;8.626;2022-07-23T00:48:18;21.50;99.90
5576;DHT22;2810;50.134;8.626;2022-07-23T00:50:44;21.60;99.90
5576;DHT22;2810;50.134;8.626;2022-07-23T00:53:10;21.50;99.90
5576;DHT22;2810;50.134;8.626;2022-07-23T00:55:35;21.80;99.90
5576;DHT22;2810;50.134;8.626;2022-07-23T00:58:01;21.50;99.90
5576;DHT22;2810;50.134;8.626;2022-07-23T01:00:27;21.50;99.90
5576;DHT22;2810;50.134;8.626;2022-07-23T01:02:53;21.50;99.90
5576;DHT22;2810;50.134;8.626;2022-07-23T01:05:18;21.50;99.90
5576;DHT22;2810;50.134;8.626;2022-07-23T01:07:51;21.40;99.90
5576;DHT22;2810;50.134;8.626;2022-07-23T01:10:16;21.40;99.90
5576;DHT22;2810;50.134;8.626;2022-07-23T01:13:01;21.40;99.90
5576;DHT22;2810;50.134;8.626;2022-07-23T01:15:27;21.30;99.90
5576;DHT22;2810;50.134;8.626;2022-07-23T01:17:53;21.30;99.90
5576;DHT22;2810;50.134;8.626;2022-07-23T01:20:18;21.30;99.90
5576;DHT22;2810;50.134;8.626;2022-07-23T01:22:44;21.40;99.90
5576;DHT22;2810;50.134;8.626;2022-07-23T01:25:09;21.40;99.90
5576;DHT22;2810;50.134;8.626;2022-07-23T01:27:35;21.40;99.90
5576;DHT22;2810;50.134;8.626;2022-07-23T01:30:01;21.40;99.90
5576;DHT22;2810;50.134;8.626;2022-07-23T01:32:27;21.40;99.90
5576;DHT22;2810;50.134;8.626;2022-07-23T01:34:52;21.30;99.90
5576;DHT22;2810;50.134;8.626;2022-07-23T01:37:18;21.40;99.90
5576;DHT22;2810;50.134;8.626;2022-07-23T01:39:43;21.20;99.90
5576;DHT22;2810;50.134;8.626;2022-07-23T01:42:09;21.30;99.90
5576;DHT22;2810;50.134;8.626;2022-07-23T01:44:35;21.20;99.90
5576;DHT22;2810;50.134;8.626;2022-07-23T01:47:00;21.20;99.90
5576;DHT22;2810;50.134;8.626;2022-07-23T01:49:25;21.20;99.90
5576;DHT22;2810;50.134;8.626;2022-07-23T01:51:51;21.20;99.90
5576;DHT22;2810;50.134;8.626;2022-07-23T01:54:30;21.20;99.90
5576;DHT22;2810;50.134;8.626;2022-07-23T01:56:55;21.10;99.90
5576;DHT22;2810;50.134;8.626;2022-07-23T01:59:21;21.10;99.90
5576;DHT22;2810;50.134;8.626;2022-07-23T02:01:47;21.10;99.90
5576;DHT22;2810;50.134;8.626;2022-07-23T02:04:12;21.10;99.90
5576;DHT22;2810;50.134;8.626;2022-07-23T02:06:38;21.00;99.90
5576;DHT22;2810;50.134;8.626;2022-07-23T02:09:03;20.90;99.90
5576;DHT22;2810;50.134;8.626;2022-07-23T02:11:29;20.90;99.90
5576;DHT22;2810;50.134;8.626;2022-07-23T02:13:54;21.10;99.90
5576;DHT22;2810;50.134;8.626;2022-07-23T02:16:19;20.80;99.90
5576;DHT22;2810;50.134;8.626;2022-07-23T02:18:45;20.80;99.90
5576;DHT22;2810;50.134;8.626;2022-07-23T02:21:12;20.90;99.90
5576;DHT22;2810;50.134;8.626;2022-07-23T02:23:38;20.80;99.90
5576;DHT22;2810;50.134;8.626;2022-07-23T02:26:03;20.80;99.90
5576;DHT22;2810;50.134;8.626;2022-07-23T02:28:28;20.70;99.90
5576;DHT22;2810;50.134;8.626;2022-07-23T02:30:54;20.80;99.90
5576;DHT22;2810;50.134;8.626;2022-07-23T02:33:19;20.80;99.90
5576;DHT22;2810;50.134;8.626;2022-07-23T02:35:45;20.60;99.90
5576;DHT22;2810;50.134;8.626;2022-07-23T02:38:10;20.60;99.90
5576;DHT22;2810;50.134;8.626;2022-07-23T02:40:36;20.70;99.90
5576;DHT22;2810;50.134;8.626;2022-07-23T02:43:01;20.80;99.90
5576;DHT22;2810;50.134;8.626;2022-07-23T02:45:26;20.70;99.90
5576;DHT22;2810;50.134;8.626;2022-07-23T02:47:52;20.70;99.90
5576;DHT22;2810;50.134;8.626;2022-07-23T02:50:17;20.70;99.90
5576;DHT22;2810;50.134;8.626;2022-07-23T02:52:43;20.80;99.90
5576;DHT22;2810;50.134;8.626;2022-07-23T02:55:08;20.90;99.90
5576;DHT22;2810;50.134;8.626;2022-07-23T02:57:34;20.90;99.90
5576;DHT22;2810;50.134;8.626;2022-07-23T02:59:59;21.00;99.90
5576;DHT22;2810;50.134;8.626;2022-07-23T03:02:25;21.10;99.90
5576;DHT22;2810;50.134;8.626;2022-07-23T03:04:50;21.10;99.90
5576;DHT22;2810;50.134;8.626;2022-07-23T03:07:16;21.40;99.90
5576;DHT22;2810;50.134;8.626;2022-07-23T03:09:42;21.10;99.90
5576;DHT22;2810;50.134;8.626;2022-07-23T03:12:07;21.10;99.90
5576;DHT22;2810;50.134;8.626;2022-07-23T03:14:33;21.10;99.90
5576;DHT22;2810;50.134;8.626;2022-07-23T03:16:58;21.10;99.90
5576;DHT22;2810;50.134;8.626;2022-07-23T03:19:25;21.20;99.90
5576;DHT22;2810;50.134;8.626;2022-07-23T03:21:50;21.10;99.90
5576;DHT22;2810;50.134;8.626;2022-07-23T03:24:15;21.00;99.90
5576;DHT22;2810;50.134;8.626;2022-07-23T03:26:43;21.10;99.90
5576;DHT22;2810;50.134;8.626;2022-07-23T03:29:08;21.00;99.90
5576;DHT22;2810;50.134;8.626;2022-07-23T03:31:34;21.00;99.90
5576;DHT22;2810;50.134;8.626;2022-07-23T03:33:59;21.00;99.90
5576;DHT22;2810;50.134;8.626;2022-07-23T03:36:25;20.90;99.90
5576;DHT22;2810;50.134;8.626;2022-07-23T03:38:50;20.80;99.90
5576;DHT22;2810;50.134;8.626;2022-07-23T03:41:16;20.80;99.90
5576;DHT22;2810;50.134;8.626;2022-07-23T03:43:42;20.70;99.90
5576;DHT22;2810;50.134;8.626;2022-07-23T03:46:07;20.70;99.90
5576;DHT22;2810;50.134;8.626;2022-07-23T03:48:32;20.70;99.90
5576;DHT22;2810;50.134;8.626;2022-07-23T03:50:58;20.80;99.90
5576;DHT22;2810;50.134;8.626;2022-07-23T03:53:23;20.80;99.90
5576;DHT22;2810;50.134;8.626;2022-07-23T03:55:49;20.70;99.90
5576;DHT22;2810;50.134;8.626;2022-07-23T03:58:14;20.70;99.90
5576;DHT22;2810;50.134;8.626;2022-07-23T04:00:40;20.70;99.90
5576;DHT22;2810;50.134;8.626;2022-07-23T04:03:05;20.70;99.90
5576;DHT22;2810;50.134;8.626;2022-07-23T04:05:31;20.70;99.90
5576;DHT22;2810;50.134;8.626;2022-07-23T04:07:56;20.70;99.90
5576;DHT22;2810;50.134;8.626;2022-07-23T04:10:22;20.60;99.90
5576;DHT22;2810;50.134;8.626;2022-07-23T04:12:47;20.70;99.90
5576;DHT22;2810;50.134;8.626;2022-07-23T04:15:12;20.70;99.90
5576;DHT22;2810;50.134;8.626;2022-07-23T04:17:38;20.70;99.90
5576;DHT22;2810;50.134;8.626;2022-07-23T04:20:03;20.70;99.90
5576;DHT22;2810;50.134;8.626;2022-07-23T04:22:29;20.70;99.90
5576;DHT22;2810;50.134;8.626;2022-07-23T04:24:55;20.60;99.90
5576;DHT22;2810;50.134;8.626;2022-07-23T04:27:20;20.50;99.90
5576;DHT22;2810;50.134;8.626;2022-07-23T04:29:46;20.50;99.90
5576;DHT22;2810;50.134;8.626;2022-07-23T04:32:11;20.60;99.90
5576;DHT22;2810;50.134;8.626;2022-07-23T04:34:37;20.50;99.90
5576;DHT22;2810;50.134;8.626;2022-07-23T04:37:02;20.40;99.90
5576;DHT22;2810;50.134;8.626;2022-07-23T04:39:28;20.40;99.90
5576;DHT22;2810;50.134;8.626;2022-07-23T04:41:53;20.40;99.90
5576;DHT22;2810;50.134;8.626;2022-07-23T04:44:18;20.40;99.90
5576;DHT22;2810;50.134;8.626;2022-07-23T04:46:44;20.40;99.90
5576;DHT22;2810;50.134;8.626;2022-07-23T04:49:09;20.50;99.90
5576;DHT22;2810;50.134;8.626;2022-07-23T04:51:35;20.50;99.90
5576;DHT22;2810;50.134;8.626;2022-07-23T04:54:00;20.60;99.90
5576;DHT22;2810;50.134;8.626;2022-07-23T04:56:26;20.60;99.90
5576;DHT22;2810;50.134;8.626;2022-07-23T04:58:51;21.20;99.90
5576;DHT22;2810;50.134;8.626;2022-07-23T05:01:16;20.80;99.90
5576;DHT22;2810;50.134;8.626;2022-07-23T05:03:42;20.80;99.90
5576;DHT22;2810;50.134;8.626;2022-07-23T05:06:07;20.90;99.90
5576;DHT22;2810;50.134;8.626;2022-07-23T05:08:33;20.90;99.90
5576;DHT22;2810;50.134;8.626;2022-07-23T05:10:59;20.80;99.90
5576;DHT22;2810;50.134;8.626;2022-07-23T05:13:24;20.80;99.90
5576;DHT22;2810;50.134;8.626;2022-07-23T05:15:50;20.80;99.90
5576;DHT22;2810;50.134;8.626;2022-07-23T05:18:15;20.80;99.90
5576;DHT22;2810;50.134;8.626;2022-07-23T05:20:41;20.80;99.90
5576;DHT22;2810;50.134;8.626;2022-07-23T05:23:07;20.80;99.90
5576;DHT22;2810;50.134;8.626;2022-07-23T05:25:32;20.80;99.90
5576;DHT22;2810;50.134;8.626;2022-07-23T05:27:58;20.70;99.90
5576;DHT22;2810;50.134;8.626;2022-07-23T05:30:23;20.70;99.90
5576;DHT22;2810;50.134;8.626;2022-07-23T05:32:49;21.00;99.90
5576;DHT22;2810;50.134;8.626;2022-07-23T05:35:14;20.70;99.90
5576;DHT22;2810;50.134;8.626;2022-07-23T05:37:39;20.70;99.90
5576;DHT22;2810;50.134;8.626;2022-07-23T05:40:06;20.70;99.90
5576;DHT22;2810;50.134;8.626;2022-07-23T05:42:33;20.60;99.90
5576;DHT22;2810;50.134;8.626;2022-07-23T05:44:59;20.60;99.90
5576;DHT22;2810;50.134;8.626;2022-07-23T05:47:24;20.80;99.90
5576;DHT22;2810;50.134;8.626;2022-07-23T05:49:49;20.70;99.90
5576;DHT22;2810;50.134;8.626;2022-07-23T05:52:15;20.80;99.90
5576;DHT22;2810;50.134;8.626;2022-07-23T05:54:40;20.80;99.90
5576;DHT22;2810;50.134;8.626;2022-07-23T05:57:06;20.90;99.90
5576;DHT22;2810;50.134;8.626;2022-07-23T05:59:32;21.00;99.90
5576;DHT22;2810;50.134;8.626;2022-07-23T06:01:57;21.10;99.90
5576;DHT22;2810;50.134;8.626;2022-07-23T06:04:23;21.50;99.90
5576;DHT22;2810;50.134;8.626;2022-07-23T06:06:48;21.10;99.90
5576;DHT22;2810;50.134;8.626;2022-07-23T06:09:14;21.10;99.90
5576;DHT22;2810;50.134;8.626;2022-07-23T06:11:39;21.00;99.90
5576;DHT22;2810;50.134;8.626;2022-07-23T06:14:05;20.90;99.90
5576;DHT22;2810;50.134;8.626;2022-07-23T06:16:31;20.90;99.90
5576;DHT22;2810;50.134;8.626;2022-07-23T06:18:56;20.90;99.90
5576;DHT22;2810;50.134;8.626;2022-07-23T06:21:21;21.10;99.90
5576;DHT22;2810;50.134;8.626;2022-07-23T06:23:47;21.20;99.90
5576;DHT22;2810;50.134;8.626;2022-07-23T06:26:12;21.50;99.90
5576;DHT22;2810;50.134;8.626;2022-07-23T06:28:38;21.70;99.90
5576;DHT22;2810;50.134;8.626;2022-07-23T06:31:03;21.90;99.90
5576;DHT22;2810;50.134;8.626;2022-07-23T06:33:29;22.10;99.90
5576;DHT22;2810;50.134;8.626;2022-07-23T06:35:54;22.30;99.90
5576;DHT22;2810;50.134;8.626;2022-07-23T06:38:19;22.50;99.90
5576;DHT22;2810;50.134;8.626;2022-07-23T06:40:45;22.90;99.90
5576;DHT22;2810;50.134;8.626;2022-07-23T06:43:10;23.50;99.90
5576;DHT22;2810;50.134;8.626;2022-07-23T06:45:36;24.20;99.90
5576;DHT22;2810;50.134;8.626;2022-07-23T06:48:01;24.80;99.90
5576;DHT22;2810;50.134;8.626;2022-07-23T06:50:27;25.30;99.90
5576;DHT22;2810;50.134;8.626;2022-07-23T06:52:53;25.70;99.90
5576;DHT22;2810;50.134;8.626;2022-07-23T06:55:18;26.00;99.90
5576;DHT22;2810;50.134;8.626;2022-07-23T06:57:44;26.30;99.90
5576;DHT22;2810;50.134;8.626;2022-07-23T07:00:10;26.40;99.90
5576;DHT22;2810;50.134;8.626;2022-07-23T07:02:36;26.40;99.90
5576;DHT22;2810;50.134;8.626;2022-07-23T07:05:01;26.40;99.90
5576;DHT22;2810;50.134;8.626;2022-07-23T07:07:27;26.70;99.90
5576;DHT22;2810;50.134;8.626;2022-07-23T07:09:52;26.90;99.90
5576;DHT22;2810;50.134;8.626;2022-07-23T07:12:18;26.80;99.90
5576;DHT22;2810;50.134;8.626;2022-07-23T07:14:43;26.80;99.90
5576;DHT22;2810;50.134;8.626;2022-07-23T07:17:09;27.00;99.90
5576;DHT22;2810;50.134;8.626;2022-07-23T07:19:36;27.30;99.90
5576;DHT22;2810;50.134;8.626;2022-07-23T07:22:01;27.40;99.90
5576;DHT22;2810;50.134;8.626;2022-07-23T07:24:27;27.10;99.90
5576;DHT22;2810;50.134;8.626;2022-07-23T07:26:52;26.90;99.90
5576;DHT22;2810;50.134;8.626;2022-07-23T07:29:17;27.10;99.90
5576;DHT22;2810;50.134;8.626;2022-07-23T07:31:43;27.40;99.90
5576;DHT22;2810;50.134;8.626;2022-07-23T07:34:08;27.50;99.30
5576;DHT22;2810;50.134;8.626;2022-07-23T07:36:34;27.80;99.20
5576;DHT22;2810;50.134;8.626;2022-07-23T07:39:03;27.90;98.20
5576;DHT22;2810;50.134;8.626;2022-07-23T07:41:29;27.90;99.30
5576;DHT22;2810;50.134;8.626;2022-07-23T07:43:55;28.10;98.20
5576;DHT22;2810;50.134;8.626;2022-07-23T07:46:20;28.30;97.60
5576;DHT22;2810;50.134;8.626;2022-07-23T07:48:45;28.60;96.60
5576;DHT22;2810;50.134;8.626;2022-07-23T07:51:11;28.90;95.90
5576;DHT22;2810;50.134;8.626;2022-07-23T07:53:36;29.20;95.60
5576;DHT22;2810;50.134;8.626;2022-07-23T07:56:02;29.80;95.00
5576;DHT22;2810;50.134;8.626;2022-07-23T07:58:27;29.20;94.30
5576;DHT22;2810;50.134;8.626;2022-07-23T08:00:53;29.20;93.40
5576;DHT22;2810;50.134;8.626;2022-07-23T08:03:18;29.40;94.20
5576;DHT22;2810;50.134;8.626;2022-07-23T08:05:44;29.50;93.10
5576;DHT22;2810;50.134;8.626;2022-07-23T08:08:09;29.40;93.30
5576;DHT22;2810;50.134;8.626;2022-07-23T08:10:40;29.30;92.20
5576;DHT22;2810;50.134;8.626;2022-07-23T08:13:05;29.70;92.20
5576;DHT22;2810;50.134;8.626;2022-07-23T08:15:31;29.90;91.50
5576;DHT22;2810;50.134;8.626;2022-07-23T08:17:56;30.00;91.30
5576;DHT22;2810;50.134;8.626;2022-07-23T08:20:23;30.00;91.40
5576;DHT22;2810;50.134;8.626;2022-07-23T08:22:49;30.10;90.90
5576;DHT22;2810;50.134;8.626;2022-07-23T08:25:16;30.00;91.20
5576;DHT22;2810;50.134;8.626;2022-07-23T08:27:42;30.00;91.40
5576;DHT22;2810;50.134;8.626;2022-07-23T08:30:07;30.30;91.20
5576;DHT22;2810;50.134;8.626;2022-07-23T08:32:33;29.80;91.20
5576;DHT22;2810;50.134;8.626;2022-07-23T08:34:58;29.30;91.80
5576;DHT22;2810;50.134;8.626;2022-07-23T08:37:24;28.80;93.00
5576;DHT22;2810;50.134;8.626;2022-07-23T08:39:49;29.10;93.20
5576;DHT22;2810;50.134;8.626;2022-07-23T08:42:15;29.80;92.10
5576;DHT22;2810;50.134;8.626;2022-07-23T08:44:41;30.40;89.50
5576;DHT22;2810;50.134;8.626;2022-07-23T08:47:09;30.50;89.80
5576;DHT22;2810;50.134;8.626;2022-07-23T08:49:35;30.90;87.00
5576;DHT22;2810;50.134;8.626;2022-07-23T08:52:00;30.80;86.10
5576;DHT22;2810;50.134;8.626;2022-07-23T08:54:26;31.20;87.10
5576;DHT22;2810;50.134;8.626;2022-07-23T08:56:52;31.60;84.70
5576;DHT22;2810;50.134;8.626;2022-07-23T08:59:17;31.60;84.20
5576;DHT22;2810;50.134;8.626;2022-07-23T09:01:42;31.40;85.30
5576;DHT22;2810;50.134;8.626;2022-07-23T09:04:08;31.50;84.00
5576;DHT22;2810;50.134;8.626;2022-07-23T09:06:33;32.00;81.90
5576;DHT22;2810;50.134;8.626;2022-07-23T09:08:59;31.90;81.80
5576;DHT22;2810;50.134;8.626;2022-07-23T09:11:41;32.20;79.00
5576;DHT22;2810;50.134;8.626;2022-07-23T09:14:10;31.50;80.70
5576;DHT22;2810;50.134;8.626;2022-07-23T09:16:36;31.60;82.20
5576;DHT22;2810;50.134;8.626;2022-07-23T09:19:02;31.90;78.60
5576;DHT22;2810;50.134;8.626;2022-07-23T09:21:31;31.60;79.90
5576;DHT22;2810;50.134;8.626;2022-07-23T09:24:04;30.80;81.60
5576;DHT22;2810;50.134;8.626;2022-07-23T09:31:22;30.70;82.50
5576;DHT22;2810;50.134;8.626;2022-07-23T09:33:47;30.30;85.30
5576;DHT22;2810;50.134;8.626;2022-07-23T09:36:13;30.40;85.30
5576;DHT22;2810;50.134;8.626;2022-07-23T09:38:48;29.90;85.50
5576;DHT22;2810;50.134;8.626;2022-07-23T09:41:14;30.20;86.40
5576;DHT22;2810;50.134;8.626;2022-07-23T09:43:39;30.90;83.20
5576;DHT22;2810;50.134;8.626;2022-07-23T09:46:18;31.70;80.70
5576;DHT22;2810;50.134;8.626;2022-07-23T09:48:45;32.10;78.10
5576;DHT22;2810;50.134;8.626;2022-07-23T09:51:10;32.20;76.50
5576;DHT22;2810;50.134;8.626;2022-07-23T09:53:35;32.70;74.50
5576;DHT22;2810;50.134;8.626;2022-07-23T09:56:01;32.70;74.40
5576;DHT22;2810;50.134;8.626;2022-07-23T09:58:27;32.70;74.30
5576;DHT22;2810;50.134;8.626;2022-07-23T10:00:53;33.20;72.40
5576;DHT22;2810;50.134;8.626;2022-07-23T10:03:19;33.60;69.30
5576;DHT22;2810;50.134;8.626;2022-07-23T10:05:45;33.80;68.70
5576;DHT22;2810;50.134;8.626;2022-07-23T10:08:12;33.50;67.30
5576;DHT22;2810;50.134;8.626;2022-07-23T10:10:40;33.20;67.10
5576;DHT22;2810;50.134;8.626;2022-07-23T10:13:06;32.60;70.00
5576;DHT22;2810;50.134;8.626;2022-07-23T10:15:48;32.30;72.40
5576;DHT22;2810;50.134;8.626;2022-07-23T10:18:13;31.80;73.20
5576;DHT22;2810;50.134;8.626;2022-07-23T10:20:39;31.90;73.90
5576;DHT22;2810;50.134;8.626;2022-07-23T10:23:10;32.20;73.00
5576;DHT22;2810;50.134;8.626;2022-07-23T10:31:00;32.50;69.60
5576;DHT22;2810;50.134;8.626;2022-07-23T10:36:15;32.40;68.90
5576;DHT22;2810;50.134;8.626;2022-07-23T10:41:11;32.80;70.60
5576;DHT22;2810;50.134;8.626;2022-07-23T10:43:37;33.20;67.30
5576;DHT22;2810;50.134;8.626;2022-07-23T10:46:23;33.30;67.00
5576;DHT22;2810;50.134;8.626;2022-07-23T10:52:14;33.60;66.10
5576;DHT22;2810;50.134;8.626;2022-07-23T10:54:28;33.70;68.50
5576;DHT22;2810;50.134;8.626;2022-07-23T10:59:22;33.20;68.10
5576;DHT22;2810;50.134;8.626;2022-07-23T11:01:47;32.80;65.20
5576;DHT22;2810;50.134;8.626;2022-07-23T11:04:13;32.50;65.50
5576;DHT22;2810;50.134;8.626;2022-07-23T11:09:28;32.70;70.50
5576;DHT22;2810;50.134;8.626;2022-07-23T11:17:19;33.30;66.00
5576;DHT22;2810;50.134;8.626;2022-07-23T11:22:39;33.30;65.30
5576;DHT22;2810;50.134;8.626;2022-07-23T11:25:04;33.20;64.20
5576;DHT22;2810;50.134;8.626;2022-07-23T11:27:43;33.30;64.90
5576;DHT22;2810;50.134;8.626;2022-07-23T11:30:09;32.90;63.60
5576;DHT22;2810;50.134;8.626;2022-07-23T11:32:36;32.60;65.80
5576;DHT22;2810;50.134;8.626;2022-07-23T11:35:05;32.40;66.10
5576;DHT22;2810;50.134;8.626;2022-07-23T11:37:43;32.60;67.00
5576;DHT22;2810;50.134;8.626;2022-07-23T11:40:10;32.80;66.40
5576;DHT22;2810;50.134;8.626;2022-07-23T11:42:36;32.70;65.40
5576;DHT22;2810;50.134;8.626;2022-07-23T11:45:03;32.40;65.40
5576;DHT22;2810;50.134;8.626;2022-07-23T11:47:28;32.40;64.40
5576;DHT22;2810;50.134;8.626;2022-07-23T11:49:58;32.10;65.60
5576;DHT22;2810;50.134;8.626;2022-07-23T11:52:23;32.10;66.10
5576;DHT22;2810;50.134;8.626;2022-07-23T11:54:51;32.10;65.20
5576;DHT22;2810;50.134;8.626;2022-07-23T11:57:17;32.20;64.80
5576;DHT22;2810;50.134;8.626;2022-07-23T11:59:43;31.80;66.40
5576;DHT22;2810;50.134;8.626;2022-07-23T12:02:09;31.90;65.60
5576;DHT22;2810;50.134;8.626;2022-07-23T12:04:41;32.00;66.00
5576;DHT22;2810;50.134;8.626;2022-07-23T12:07:26;31.80;64.10
5576;DHT22;2810;50.134;8.626;2022-07-23T12:09:52;31.70;66.00
5576;DHT22;2810;50.134;8.626;2022-07-23T12:12:18;31.80;64.70
5576;DHT22;2810;50.134;8.626;2022-07-23T12:15:02;31.50;66.30
5576;DHT22;2810;50.134;8.626;2022-07-23T12:17:29;31.60;67.40
5576;DHT22;2810;50.134;8.626;2022-07-23T12:19:58;31.70;65.70
5576;DHT22;2810;50.134;8.626;2022-07-23T12:22:24;31.50;64.40
5576;DHT22;2810;50.134;8.626;2022-07-23T12:25:00;31.30;66.50
5576;DHT22;2810;50.134;8.626;2022-07-23T12:27:26;31.40;68.00
5576;DHT22;2810;50.134;8.626;2022-07-23T12:29:52;31.30;67.00
5576;DHT22;2810;50.134;8.626;2022-07-23T12:34:43;31.00;67.00
5576;DHT22;2810;50.134;8.626;2022-07-23T12:37:24;30.70;68.00
5576;DHT22;2810;50.134;8.626;2022-07-23T12:39:49;30.50;69.20
5576;DHT22;2810;50.134;8.626;2022-07-23T12:42:15;30.40;70.00
5576;DHT22;2810;50.134;8.626;2022-07-23T12:44:41;30.20;70.70
5576;DHT22;2810;50.134;8.626;2022-07-23T12:47:06;30.20;70.70
5576;DHT22;2810;50.134;8.626;2022-07-23T12:49:32;30.00;70.40
5576;DHT22;2810;50.134;8.626;2022-07-23T12:51:57;30.00;71.60
5576;DHT22;2810;50.134;8.626;2022-07-23T12:54:26;30.10;70.70
5576;DHT22;2810;50.134;8.626;2022-07-23T12:56:53;30.00;71.40
5576;DHT22;2810;50.134;8.626;2022-07-23T12:59:18;29.80;69.80
5576;DHT22;2810;50.134;8.626;2022-07-23T13:01:54;30.50;71.70
5576;DHT22;2810;50.134;8.626;2022-07-23T13:04:21;30.60;69.20
5576;DHT22;2810;50.134;8.626;2022-07-23T13:06:48;30.70;70.10
5576;DHT22;2810;50.134;8.626;2022-07-23T13:09:15;30.70;67.90
5576;DHT22;2810;50.134;8.626;2022-07-23T13:11:41;30.80;68.40
5576;DHT22;2810;50.134;8.626;2022-07-23T13:14:07;31.10;68.20
5576;DHT22;2810;50.134;8.626;2022-07-23T13:16:33;31.20;69.00
5576;DHT22;2810;50.134;8.626;2022-07-23T13:18:59;31.40;67.70
5576;DHT22;2810;50.134;8.626;2022-07-23T13:21:25;31.70;65.90
5576;DHT22;2810;50.134;8.626;2022-07-23T13:23:51;31.90;65.50
5576;DHT22;2810;50.134;8.626;2022-07-23T13:26:16;31.80;64.50
5576;DHT22;2810;50.134;8.626;2022-07-23T13:28:42;31.60;63.80
5576;DHT22;2810;50.134;8.626;2022-07-23T13:31:07;31.80;65.50
5576;DHT22;2810;50.134;8.626;2022-07-23T13:33:33;31.80;63.70
5576;DHT22;2810;50.134;8.626;2022-07-23T13:35:58;32.00;63.00
5576;DHT22;2810;50.134;8.626;2022-07-23T13:38:24;32.00;60.80
5576;DHT22;2810;50.134;8.626;2022-07-23T13:40:50;31.80;62.20
5576;DHT22;2810;50.134;8.626;2022-07-23T13:43:16;31.60;62.30
5576;DHT22;2810;50.134;8.626;2022-07-23T13:45:44;31.30;64.00
5576;DHT22;2810;50.134;8.626;2022-07-23T13:48:10;31.00;63.00
5576;DHT22;2810;50.134;8.626;2022-07-23T13:50:36;30.80;62.40
5576;DHT22;2810;50.134;8.626;2022-07-23T13:53:03;30.80;63.20
5576;DHT22;2810;50.134;8.626;2022-07-23T13:55:29;30.70;64.40
5576;DHT22;2810;50.134;8.626;2022-07-23T13:57:54;30.60;65.80
5576;DHT22;2810;50.134;8.626;2022-07-23T14:00:20;30.70;68.30
5576;DHT22;2810;50.134;8.626;2022-07-23T14:02:45;31.00;65.30
5576;DHT22;2810;50.134;8.626;2022-07-23T14:05:11;31.10;65.30
5576;DHT22;2810;50.134;8.626;2022-07-23T14:07:37;31.00;65.30
5576;DHT22;2810;50.134;8.626;2022-07-23T14:10:03;31.00;63.30
5576;DHT22;2810;50.134;8.626;2022-07-23T14:12:29;30.90;62.40
5576;DHT22;2810;50.134;8.626;2022-07-23T14:14:54;30.90;64.30
5576;DHT22;2810;50.134;8.626;2022-07-23T14:17:20;31.40;64.40
5576;DHT22;2810;50.134;8.626;2022-07-23T14:19:45;31.30;65.90
5576;DHT22;2810;50.134;8.626;2022-07-23T14:22:11;31.30;63.40
5576;DHT22;2810;50.134;8.626;2022-07-23T14:24:36;31.30;63.90
5576;DHT22;2810;50.134;8.626;2022-07-23T14:27:02;31.30;61.60
5576;DHT22;2810;50.134;8.626;2022-07-23T14:29:28;31.00;62.50
5576;DHT22;2810;50.134;8.626;2022-07-23T14:31:53;30.90;62.70
5576;DHT22;2810;50.134;8.626;2022-07-23T14:34:19;30.80;62.50
5576;DHT22;2810;50.134;8.626;2022-07-23T14:36:44;30.70;63.00
5576;DHT22;2810;50.134;8.626;2022-07-23T14:39:10;30.60;63.60
5576;DHT22;2810;50.134;8.626;2022-07-23T14:41:37;30.70;64.30
5576;DHT22;2810;50.134;8.626;2022-07-23T14:44:02;31.00;62.00
5576;DHT22;2810;50.134;8.626;2022-07-23T14:46:28;31.00;62.10
5576;DHT22;2810;50.134;8.626;2022-07-23T14:48:53;31.00;61.80
5576;DHT22;2810;50.134;8.626;2022-07-23T14:51:19;31.30;61.00
5576;DHT22;2810;50.134;8.626;2022-07-23T14:53:44;30.90;61.20
5576;DHT22;2810;50.134;8.626;2022-07-23T14:56:09;30.90;62.00
5576;DHT22;2810;50.134;8.626;2022-07-23T14:58:35;31.10;61.70
5576;DHT22;2810;50.134;8.626;2022-07-23T15:01:00;31.10;60.50
5576;DHT22;2810;50.134;8.626;2022-07-23T15:03:26;31.10;59.10
5576;DHT22;2810;50.134;8.626;2022-07-23T15:05:51;31.10;59.90
5576;DHT22;2810;50.134;8.626;2022-07-23T15:08:17;31.10;59.60
5576;DHT22;2810;50.134;8.626;2022-07-23T15:10:42;31.10;60.60
5576;DHT22;2810;50.134;8.626;2022-07-23T15:13:08;31.00;60.80
5576;DHT22;2810;50.134;8.626;2022-07-23T15:15:33;31.10;59.50
5576;DHT22;2810;50.134;8.626;2022-07-23T15:17:59;30.90;60.30
5576;DHT22;2810;50.134;8.626;2022-07-23T15:20:24;30.90;59.90
5576;DHT22;2810;50.134;8.626;2022-07-23T15:22:50;30.80;59.30
5576;DHT22;2810;50.134;8.626;2022-07-23T15:25:15;30.70;60.20
5576;DHT22;2810;50.134;8.626;2022-07-23T15:27:40;30.90;60.10
5576;DHT22;2810;50.134;8.626;2022-07-23T15:30:06;30.40;59.70
5576;DHT22;2810;50.134;8.626;2022-07-23T15:32:32;30.30;61.30
5576;DHT22;2810;50.134;8.626;2022-07-23T15:34:57;30.30;60.40
5576;DHT22;2810;50.134;8.626;2022-07-23T15:37:23;30.20;61.60
5576;DHT22;2810;50.134;8.626;2022-07-23T15:39:48;30.30;60.70
5576;DHT22;2810;50.134;8.626;2022-07-23T15:42:14;30.30;60.70
5576;DHT22;2810;50.134;8.626;2022-07-23T15:44:39;30.20;60.20
5576;DHT22;2810;50.134;8.626;2022-07-23T15:47:05;30.00;60.30
5576;DHT22;2810;50.134;8.626;2022-07-23T15:49:35;30.10;60.70
5576;DHT22;2810;50.134;8.626;2022-07-23T15:52:01;30.10;60.80
5576;DHT22;2810;50.134;8.626;2022-07-23T15:54:26;30.10;61.50
5576;DHT22;2810;50.134;8.626;2022-07-23T15:56:52;30.00;59.80
5576;DHT22;2810;50.134;8.626;2022-07-23T15:59:17;29.90;59.60
5576;DHT22;2810;50.134;8.626;2022-07-23T16:01:43;30.00;59.70
5576;DHT22;2810;50.134;8.626;2022-07-23T16:04:08;29.80;59.70
5576;DHT22;2810;50.134;8.626;2022-07-23T16:06:34;29.20;59.70
5576;DHT22;2810;50.134;8.626;2022-07-23T16:09:00;29.20;60.40
5576;DHT22;2810;50.134;8.626;2022-07-23T16:11:27;29.20;60.50
5576;DHT22;2810;50.134;8.626;2022-07-23T16:13:53;29.20;60.20
5576;DHT22;2810;50.134;8.626;2022-07-23T16:16:18;29.20;61.10
5576;DHT22;2810;50.134;8.626;2022-07-23T16:18:44;29.20;60.70
5576;DHT22;2810;50.134;8.626;2022-07-23T16:21:12;29.20;59.80
5576;DHT22;2810;50.134;8.626;2022-07-23T16:23:38;29.20;60.70
5576;DHT22;2810;50.134;8.626;2022-07-23T16:26:03;29.20;59.80
5576;DHT22;2810;50.134;8.626;2022-07-23T16:28:29;29.10;60.10
5576;DHT22;2810;50.134;8.626;2022-07-23T16:30:54;29.10;59.20